createdAt,value
2022-11-01T00:00:06.325Z,11.59
2022-11-01T00:03:14.325Z,11.59
2022-11-01T00:05:56.015Z,11.58
2022-11-01T00:08:37.707Z,11.56
2022-11-01T00:11:20.628Z,11.56
2022-11-01T00:14:02.727Z,11.55
2022-11-01T00:16:44.403Z,11.54
2022-11-01T00:19:26.113Z,11.54
2022-11-01T00:22:07.762Z,11.53
2022-11-01T00:24:49.491Z,11.52
2022-11-01T00:27:31.183Z,11.52
2022-11-01T00:30:13.079Z,11.51
2022-11-01T00:32:57.738Z,11.49
2022-11-01T00:35:39.428Z,11.48
2022-11-01T00:38:21.119Z,11.48
2022-11-01T00:41:04.252Z,11.49
2022-11-01T00:43:46.037Z,11.49
2022-11-01T00:46:27.728Z,11.50
2022-11-01T00:49:09.428Z,11.50
2022-11-01T00:51:52.339Z,11.49
2022-11-01T00:54:34.030Z,11.49
2022-11-01T00:57:15.721Z,11.46
2022-11-01T00:59:57.416Z,11.43
2022-11-01T01:02:39.307Z,11.43
2022-11-01T01:05:21.100Z,11.43
2022-11-01T01:08:03.718Z,11.43
2022-11-01T01:10:45.404Z,11.43
2022-11-01T01:13:27.095Z,11.44
2022-11-01T01:16:11.106Z,11.44
2022-11-01T01:18:52.934Z,11.45
2022-11-01T01:21:34.727Z,11.46
2022-11-01T01:24:16.348Z,11.48
2022-11-01T01:26:58.008Z,11.49
2022-11-01T01:29:43.691Z,11.48
2022-11-01T01:32:25.387Z,11.48
2022-11-01T01:35:08.314Z,11.48
2022-11-01T01:37:50.404Z,11.49
2022-11-01T01:40:33.982Z,11.48
2022-11-01T01:43:15.832Z,11.47
2022-11-01T01:45:57.529Z,11.47
2022-11-01T01:48:42.014Z,11.48
2022-11-01T01:51:27.095Z,11.48
2022-11-01T01:54:08.945Z,11.49
2022-11-01T01:56:50.738Z,11.50
2022-11-01T01:59:33.145Z,11.50
2022-11-01T02:02:15.186Z,11.50
2022-11-01T02:05:20.529Z,11.51
2022-11-01T02:08:04.957Z,11.52
2022-11-01T02:10:46.739Z,11.53
2022-11-01T02:13:29.998Z,11.54
2022-11-01T02:16:37.258Z,11.55
2022-11-01T02:20:03.494Z,11.56
2022-11-01T02:23:22.972Z,11.55
2022-11-01T02:26:40.078Z,11.55
2022-11-01T02:29:57.007Z,11.55
2022-11-01T02:33:07.473Z,11.53
2022-11-01T02:36:02.478Z,11.53
2022-11-01T02:38:51.492Z,11.53
2022-11-01T02:41:39.834Z,11.53
2022-11-01T02:44:33.764Z,11.52
2022-11-01T02:47:16.894Z,11.52
2022-11-01T02:50:03.289Z,11.51
2022-11-01T02:52:46.516Z,11.51
2022-11-01T02:55:30.969Z,11.51
2022-11-01T02:58:23.211Z,11.51
2022-11-01T03:01:15.486Z,11.52
2022-11-01T03:03:59.196Z,11.52
2022-11-01T03:06:46.512Z,11.50
2022-11-01T03:09:29.224Z,11.48
2022-11-01T03:12:26.127Z,11.48
2022-11-01T03:15:21.224Z,11.47
2022-11-01T03:18:11.160Z,11.46
2022-11-01T03:21:18.247Z,11.46
2022-11-01T03:24:18.257Z,11.44
2022-11-01T03:27:10.686Z,11.42
2022-11-01T03:30:07.255Z,11.40
2022-11-01T03:32:56.007Z,11.39
2022-11-01T03:35:40.769Z,11.39
2022-11-01T03:38:27.292Z,11.39
2022-11-01T03:41:13.383Z,11.37
2022-11-01T03:43:56.084Z,11.36
2022-11-01T03:46:37.774Z,11.33
2022-11-01T03:49:20.181Z,11.31
2022-11-01T03:52:01.873Z,11.29
2022-11-01T03:54:43.564Z,11.26
2022-11-01T03:57:25.358Z,11.25
2022-11-01T04:00:08.890Z,11.26
2022-11-01T04:02:55.269Z,11.28
2022-11-01T04:05:39.133Z,11.29
2022-11-01T04:08:20.825Z,11.30
2022-11-01T04:11:03.642Z,11.31
2022-11-01T04:13:47.687Z,11.32
2022-11-01T04:16:48.323Z,11.31
2022-11-01T04:19:48.753Z,11.29
2022-11-01T04:22:30.445Z,11.27
2022-11-01T04:25:12.135Z,11.25
2022-11-01T04:27:56.682Z,11.21
2022-11-01T04:30:38.486Z,11.15
2022-11-01T04:33:20.175Z,11.08
2022-11-01T04:36:08.358Z,11.00
2022-11-01T04:38:52.357Z,10.94
2022-11-01T04:41:34.062Z,10.86
2022-11-01T04:44:15.849Z,10.82
2022-11-01T04:46:57.542Z,10.79
2022-11-01T04:49:39.232Z,10.76
2022-11-01T04:52:21.025Z,10.74
2022-11-01T04:55:03.227Z,10.72
2022-11-01T04:57:45.124Z,10.72
2022-11-01T05:00:27.428Z,10.73
2022-11-01T05:03:11.132Z,10.74
2022-11-01T05:05:52.960Z,10.73
2022-11-01T05:08:34.974Z,10.74
2022-11-01T05:11:16.754Z,10.74
2022-11-01T05:13:58.442Z,10.75
2022-11-01T05:16:40.135Z,10.76
2022-11-01T05:19:22.234Z,10.76
2022-11-01T05:22:04.440Z,10.77
2022-11-01T05:24:46.233Z,10.78
2022-11-01T05:27:27.922Z,10.80
2022-11-01T05:30:10.545Z,10.83
2022-11-01T05:33:02.161Z,10.84
2022-11-01T05:35:43.848Z,10.86
2022-11-01T05:38:25.541Z,10.87
2022-11-01T05:41:07.392Z,10.86
2022-11-01T05:43:49.125Z,10.87
2022-11-01T05:46:31.181Z,10.88
2022-11-01T05:49:13.434Z,10.87
2022-11-01T05:51:55.765Z,10.85
2022-11-01T05:54:38.067Z,10.84
2022-11-01T05:57:32.365Z,10.85
2022-11-01T06:00:15.145Z,10.87
2022-11-01T06:03:00.842Z,10.89
2022-11-01T06:05:43.031Z,10.91
2022-11-01T06:08:25.848Z,10.92
2022-11-01T06:11:07.554Z,10.92
2022-11-01T06:13:56.128Z,10.91
2022-11-01T06:16:37.885Z,10.90
2022-11-01T06:19:22.569Z,10.89
2022-11-01T06:22:04.880Z,10.88
2022-11-01T06:24:46.847Z,10.88
2022-11-01T06:27:29.464Z,10.90
2022-11-01T06:30:11.664Z,10.93
2022-11-01T06:32:58.377Z,10.94
2022-11-01T06:35:40.063Z,10.96
2022-11-01T06:38:21.862Z,10.98
2022-11-01T06:41:03.650Z,10.99
2022-11-01T06:43:45.443Z,11.01
2022-11-01T06:46:27.136Z,11.01
2022-11-01T06:49:08.824Z,11.01
2022-11-01T06:51:50.522Z,11.01
2022-11-01T06:54:32.821Z,11.01
2022-11-01T06:57:14.513Z,11.01
2022-11-01T06:59:57.435Z,11.01
2022-11-01T07:02:39.382Z,11.01
2022-11-01T07:05:21.224Z,11.01
2022-11-01T07:08:04.544Z,11.01
2022-11-01T07:10:46.553Z,11.02
2022-11-01T07:13:33.894Z,11.06
2022-11-01T07:16:15.668Z,11.07
2022-11-01T07:18:57.462Z,11.09
2022-11-01T07:21:39.151Z,11.10
2022-11-01T07:24:20.945Z,11.11
2022-11-01T07:27:02.739Z,11.13
2022-11-01T07:29:44.443Z,11.16
2022-11-01T07:32:26.120Z,11.20
2022-11-01T07:35:08.497Z,11.21
2022-11-01T07:37:50.322Z,11.22
2022-11-01T07:40:32.114Z,11.22
2022-11-01T07:43:13.908Z,11.23
2022-11-01T07:45:59.797Z,11.25
2022-11-01T07:48:41.692Z,11.27
2022-11-01T07:51:23.383Z,11.30
2022-11-01T07:54:05.081Z,11.31
2022-11-01T07:56:48.505Z,11.31
2022-11-01T07:59:30.196Z,11.32
2022-11-01T08:02:11.987Z,11.33
2022-11-01T08:04:54.705Z,11.34
2022-11-01T08:07:39.876Z,11.35
2022-11-01T08:10:22.184Z,11.38
2022-11-01T08:13:05.614Z,11.39
2022-11-01T08:15:48.540Z,11.40
2022-11-01T08:18:30.327Z,11.44
2022-11-01T08:21:18.865Z,11.47
2022-11-01T08:24:00.879Z,11.49
2022-11-01T08:26:44.004Z,11.53
2022-11-01T08:29:29.711Z,11.58
2022-11-01T08:32:12.095Z,11.66
2022-11-01T08:34:57.734Z,11.71
2022-11-01T08:37:51.029Z,11.73
2022-11-01T08:40:34.733Z,11.76
2022-11-01T08:43:18.213Z,11.81
2022-11-01T08:46:00.208Z,11.82
2022-11-01T08:48:42.003Z,11.83
2022-11-01T08:51:49.325Z,11.84
2022-11-01T08:54:31.604Z,11.86
2022-11-01T08:57:15.222Z,11.86
2022-11-01T08:59:57.234Z,11.85
2022-11-01T09:02:39.292Z,11.84
2022-11-01T09:09:26.072Z,11.86
2022-11-01T09:12:12.294Z,11.87
2022-11-01T09:14:56.210Z,11.89
2022-11-01T09:17:38.008Z,11.91
2022-11-01T09:20:20.208Z,11.92
2022-11-01T09:23:02.068Z,11.94
2022-11-01T09:25:44.100Z,11.94
2022-11-01T09:28:28.885Z,11.95
2022-11-01T09:31:20.748Z,11.97
2022-11-01T09:34:03.511Z,11.98
2022-11-01T09:36:45.304Z,11.98
2022-11-01T09:39:27.710Z,11.97
2022-11-01T09:42:23.123Z,11.99
2022-11-01T09:45:16.079Z,12.02
2022-11-01T09:48:00.936Z,12.05
2022-11-01T09:50:45.489Z,12.08
2022-11-01T09:53:30.677Z,12.09
2022-11-01T09:56:30.536Z,12.10
2022-11-01T09:59:35.908Z,12.10
2022-11-01T10:02:55.861Z,12.10
2022-11-01T10:05:55.025Z,12.10
2022-11-01T10:08:54.766Z,12.08
2022-11-01T10:12:09.984Z,12.13
2022-11-01T10:15:20.972Z,12.18
2022-11-01T10:18:28.170Z,12.17
2022-11-01T10:21:18.022Z,12.13
2022-11-01T10:24:05.408Z,12.10
2022-11-01T10:26:50.972Z,12.08
2022-11-01T10:30:08.096Z,12.06
2022-11-01T10:33:02.916Z,12.05
2022-11-01T10:35:47.655Z,12.04
2022-11-01T10:41:53.368Z,12.06
2022-11-01T10:44:41.572Z,12.07
2022-11-01T10:47:26.154Z,12.08
2022-11-01T10:50:18.951Z,12.09
2022-11-01T10:53:07.436Z,12.11
2022-11-01T10:55:57.044Z,12.12
2022-11-01T10:59:03.037Z,12.11
2022-11-01T11:01:47.574Z,12.12
2022-11-01T11:04:29.626Z,12.14
2022-11-01T11:07:13.877Z,12.20
2022-11-01T11:09:55.906Z,12.39
2022-11-01T11:12:37.770Z,12.58
2022-11-01T11:15:23.634Z,12.73
2022-11-01T11:18:14.978Z,12.90
2022-11-01T11:21:00.533Z,13.06
2022-11-01T11:23:46.326Z,13.16
2022-11-01T11:26:38.788Z,13.24
2022-11-01T11:29:29.699Z,13.29
2022-11-01T11:32:18.725Z,13.33
2022-11-01T11:35:19.836Z,13.41
2022-11-01T11:38:05.573Z,13.47
2022-11-01T11:40:48.000Z,13.47
2022-11-01T11:43:34.222Z,13.41
2022-11-01T11:46:21.760Z,13.31
2022-11-01T11:49:07.267Z,13.20
2022-11-01T11:51:49.200Z,13.11
2022-11-01T11:54:34.475Z,13.00
2022-11-01T11:57:29.994Z,12.92
2022-11-01T12:00:26.933Z,12.83
2022-11-01T12:03:13.057Z,12.79
2022-11-01T12:06:07.233Z,12.77
2022-11-01T12:08:55.587Z,12.75
2022-11-01T12:11:46.984Z,12.72
2022-11-01T12:14:30.824Z,12.73
2022-11-01T12:17:23.165Z,12.73
2022-11-01T12:20:36.293Z,12.74
2022-11-01T12:23:27.261Z,12.73
2022-11-01T12:26:16.645Z,12.73
2022-11-01T12:29:13.624Z,12.74
2022-11-01T12:32:01.499Z,12.73
2022-11-01T12:34:47.859Z,12.70
2022-11-01T12:37:45.740Z,12.69
2022-11-01T12:40:36.330Z,12.70
2022-11-01T12:43:30.542Z,12.69
2022-11-01T12:46:39.205Z,12.68
2022-11-01T12:49:34.551Z,12.64
2022-11-01T12:52:26.273Z,12.64
2022-11-01T12:55:34.696Z,12.64
2022-11-01T12:58:18.944Z,12.64
2022-11-01T13:01:00.683Z,12.62
2022-11-01T13:03:56.454Z,12.59
2022-11-01T13:07:03.541Z,12.59
2022-11-01T13:10:19.535Z,12.58
2022-11-01T13:13:25.087Z,12.56
2022-11-01T13:16:11.387Z,12.55
2022-11-01T13:19:10.393Z,12.56
2022-11-01T13:22:04.079Z,12.58
2022-11-01T13:24:57.617Z,12.60
2022-11-01T13:27:46.951Z,12.59
2022-11-01T13:30:32.279Z,12.58
2022-11-01T13:33:50.240Z,12.55
2022-11-01T13:36:58.642Z,12.55
2022-11-01T13:39:43.412Z,12.55
2022-11-01T13:42:38.321Z,12.55
2022-11-01T13:45:43.843Z,12.55
2022-11-01T13:48:57.493Z,12.54
2022-11-01T13:51:50.174Z,12.53
2022-11-01T13:54:40.849Z,12.51
2022-11-01T13:57:26.233Z,12.49
2022-11-01T14:00:37.526Z,12.46
2022-11-01T14:03:26.156Z,12.45
2022-11-01T14:06:08.662Z,12.44
2022-11-01T14:08:54.551Z,12.42
2022-11-01T14:11:41.491Z,12.39
2022-11-01T14:14:32.513Z,12.37
2022-11-01T14:17:21.691Z,12.34
2022-11-01T14:20:04.248Z,12.33
2022-11-01T14:22:46.556Z,12.32
2022-11-01T14:25:46.183Z,12.31
2022-11-01T14:28:31.369Z,12.30
2022-11-01T14:31:19.908Z,12.28
2022-11-01T14:34:06.665Z,12.28
2022-11-01T14:36:55.881Z,12.28
2022-11-01T14:39:55.376Z,12.28
2022-11-01T14:42:43.359Z,12.28
2022-11-01T14:45:34.902Z,12.27
2022-11-01T14:48:30.849Z,12.27
2022-11-01T14:51:31.702Z,12.26
2022-11-01T14:54:32.109Z,12.26
2022-11-01T14:57:26.735Z,12.25
2022-11-01T15:00:22.136Z,12.25
2022-11-01T15:03:09.216Z,12.24
2022-11-01T15:05:52.719Z,12.24
2022-11-01T15:08:41.617Z,12.23
2022-11-01T15:11:27.845Z,12.23
2022-11-01T15:14:09.741Z,12.23
2022-11-01T15:16:52.249Z,12.22
2022-11-01T15:19:38.213Z,12.19
2022-11-01T15:22:23.823Z,12.17
2022-11-01T15:25:06.657Z,12.13
2022-11-01T15:27:50.279Z,12.09
2022-11-01T15:30:34.917Z,12.06
2022-11-01T15:33:30.867Z,12.03
2022-11-01T15:36:22.219Z,12.01
2022-11-01T15:39:19.323Z,11.99
2022-11-01T15:42:01.859Z,11.96
2022-11-01T15:44:46.209Z,11.93
2022-11-01T15:47:29.321Z,11.90
2022-11-01T15:50:11.628Z,11.87
2022-11-01T15:53:04.268Z,11.83
2022-11-01T15:55:51.393Z,11.79
2022-11-01T15:58:41.569Z,11.78
2022-11-01T16:01:24.885Z,11.75
2022-11-01T16:04:12.541Z,11.72
2022-11-01T16:07:07.340Z,11.69
2022-11-01T16:09:53.612Z,11.68
2022-11-01T16:12:39.416Z,11.69
2022-11-01T16:15:26.648Z,11.69
2022-11-01T16:18:17.418Z,11.69
2022-11-01T16:21:05.261Z,11.68
2022-11-01T16:23:53.074Z,11.66
2022-11-01T16:27:26.524Z,11.64
2022-11-01T16:30:32.697Z,11.62
2022-11-01T16:33:20.533Z,11.59
2022-11-01T16:36:05.208Z,11.56
2022-11-01T16:38:49.408Z,11.53
2022-11-01T16:41:39.867Z,11.52
2022-11-01T16:44:45.657Z,11.53
2022-11-01T16:47:27.391Z,11.52
2022-11-01T16:50:17.586Z,11.50
2022-11-01T16:53:01.981Z,11.48
2022-11-01T16:55:44.330Z,11.47
2022-11-01T16:58:26.826Z,11.48
2022-11-01T17:01:35.080Z,11.47
2022-11-01T17:04:22.093Z,11.46
2022-11-01T17:07:07.993Z,11.47
2022-11-01T17:09:52.586Z,11.46
2022-11-01T17:12:37.577Z,11.44
2022-11-01T17:15:20.096Z,11.43
2022-11-01T17:18:09.245Z,11.42
2022-11-01T17:20:55.904Z,11.41
2022-11-01T17:23:46.772Z,11.41
2022-11-01T17:26:29.798Z,11.41
2022-11-01T17:29:21.935Z,11.40
2022-11-01T17:32:10.510Z,11.40
2022-11-01T17:34:54.327Z,11.41
2022-11-01T17:37:41.141Z,11.41
2022-11-01T17:40:25.508Z,11.40
2022-11-01T17:43:16.302Z,11.40
2022-11-01T17:46:13.428Z,11.40
2022-11-01T17:48:59.001Z,11.40
2022-11-01T17:51:46.332Z,11.40
2022-11-01T17:54:32.244Z,11.40
2022-11-01T17:57:19.778Z,11.40
2022-11-01T18:00:05.080Z,11.40
2022-11-01T18:02:58.205Z,11.42
2022-11-01T18:05:42.213Z,11.42
2022-11-01T18:08:28.312Z,11.43
2022-11-01T18:11:23.247Z,11.43
2022-11-01T18:14:47.078Z,11.44
2022-11-01T18:17:35.170Z,11.45
2022-11-01T18:20:54.324Z,11.46
2022-11-01T18:23:37.772Z,11.48
2022-11-01T18:26:27.229Z,11.50
2022-11-01T18:29:18.306Z,11.52
2022-11-01T18:32:25.849Z,11.54
2022-11-01T18:35:17.281Z,11.57
2022-11-01T18:38:14.888Z,11.60
2022-11-01T18:41:01.967Z,11.64
2022-11-01T18:43:44.359Z,11.67
2022-11-01T18:46:36.901Z,11.70
2022-11-01T18:49:19.206Z,11.72
2022-11-01T18:52:01.111Z,11.74
2022-11-01T18:54:55.203Z,11.74
2022-11-01T18:57:39.407Z,11.77
2022-11-01T19:00:22.969Z,11.80
2022-11-01T19:03:12.449Z,11.83
2022-11-01T19:05:55.055Z,11.85
2022-11-01T19:08:37.054Z,11.86
2022-11-01T19:11:21.217Z,11.89
2022-11-01T19:14:04.663Z,11.91
2022-11-01T19:16:46.534Z,11.90
2022-11-01T19:19:28.508Z,11.91
2022-11-01T19:22:33.053Z,11.91
2022-11-01T19:25:39.333Z,11.92
2022-11-01T19:28:34.265Z,11.92
2022-11-01T19:31:25.870Z,11.92
2022-11-01T19:34:22.793Z,11.95
2022-11-01T19:37:16.774Z,11.97
2022-11-01T19:39:58.944Z,12.01
2022-11-01T19:42:40.666Z,12.04
2022-11-01T19:45:24.609Z,12.08
2022-11-01T19:48:12.246Z,12.10
2022-11-01T19:50:55.058Z,12.13
2022-11-01T19:53:40.409Z,12.15
2022-11-01T19:56:25.229Z,12.17
2022-11-01T19:59:14.127Z,12.20
2022-11-01T20:01:56.572Z,12.23
2022-11-01T20:04:38.392Z,12.27
2022-11-01T20:07:21.586Z,12.29
2022-11-01T20:10:05.632Z,12.32
2022-11-01T20:12:47.734Z,12.35
2022-11-01T20:15:30.547Z,12.38
2022-11-01T20:18:35.871Z,12.39
2022-11-01T20:21:17.968Z,12.40
2022-11-01T20:24:00.711Z,12.42
2022-11-01T20:26:43.328Z,12.42
2022-11-01T20:29:26.246Z,12.41
2022-11-01T20:32:08.038Z,12.38
2022-11-01T20:34:50.713Z,12.37
2022-11-01T20:37:32.390Z,12.36
2022-11-01T20:40:15.158Z,12.36
2022-11-01T20:42:57.156Z,12.36
2022-11-01T20:45:42.041Z,12.37
2022-11-01T20:48:25.970Z,12.37
2022-11-01T20:51:08.107Z,12.36
2022-11-01T20:53:50.679Z,12.37
2022-11-01T20:56:32.576Z,12.38
2022-11-01T20:59:15.972Z,12.38
2022-11-01T21:02:00.993Z,12.39
2022-11-01T21:04:42.882Z,12.38
2022-11-01T21:07:25.821Z,12.38
2022-11-01T21:10:32.363Z,12.37
2022-11-01T21:13:24.257Z,12.36
2022-11-01T21:16:16.590Z,12.34
2022-11-01T21:19:02.354Z,12.29
2022-11-01T21:21:47.079Z,12.22
2022-11-01T21:24:34.323Z,12.14
2022-11-01T21:27:23.552Z,12.10
2022-11-01T21:30:21.199Z,12.08
2022-11-01T21:33:32.772Z,12.05
2022-11-01T21:36:20.270Z,12.03
2022-11-01T21:39:10.341Z,12.01
2022-11-01T21:41:55.955Z,11.98
2022-11-01T21:44:43.687Z,11.96
2022-11-01T21:47:29.237Z,11.94
2022-11-01T21:50:11.953Z,11.92
2022-11-01T21:52:53.747Z,11.88
2022-11-01T21:55:35.436Z,11.83
2022-11-01T21:58:17.230Z,11.79
2022-11-01T22:00:58.987Z,11.74
2022-11-01T22:03:40.920Z,11.70
2022-11-01T22:06:22.574Z,11.66
2022-11-01T22:09:05.223Z,11.62
2022-11-01T22:11:47.016Z,11.58
2022-11-01T22:14:28.707Z,11.51
2022-11-01T22:17:10.398Z,11.45
2022-11-01T22:19:52.111Z,11.41
2022-11-01T22:22:34.533Z,11.39
2022-11-01T22:25:16.293Z,11.35
2022-11-01T22:27:58.084Z,11.33
2022-11-01T22:30:40.184Z,11.27
2022-11-01T22:33:21.875Z,11.25
2022-11-01T22:36:05.188Z,11.25
2022-11-01T22:38:47.203Z,11.25
2022-11-01T22:41:34.238Z,11.27
2022-11-01T22:44:19.135Z,11.27
2022-11-01T22:47:02.719Z,11.26
2022-11-01T22:49:51.521Z,11.27
2022-11-01T22:52:43.515Z,11.27
2022-11-01T22:55:27.555Z,11.28
2022-11-01T22:58:30.751Z,11.29
2022-11-01T23:01:23.575Z,11.32
2022-11-01T23:04:20.962Z,11.34
2022-11-01T23:07:05.584Z,11.35
2022-11-01T23:09:47.313Z,11.36
2022-11-01T23:12:47.744Z,11.38
2022-11-01T23:15:32.426Z,11.41
2022-11-01T23:18:27.857Z,11.43
2022-11-01T23:21:10.534Z,11.47
2022-11-01T23:23:52.940Z,11.50
2022-11-01T23:26:35.039Z,11.52
2022-11-01T23:29:16.667Z,11.55
2022-11-01T23:31:58.319Z,11.56
2022-11-01T23:34:40.521Z,11.58
2022-11-01T23:37:23.135Z,11.59
2022-11-01T23:40:16.907Z,11.62
2022-11-01T23:42:58.603Z,11.64
2022-11-01T23:45:40.802Z,11.66
2022-11-01T23:48:23.721Z,11.69
2022-11-01T23:51:06.438Z,11.73
2022-11-01T23:53:52.943Z,11.75
2022-11-01T23:56:34.632Z,11.76
2022-11-01T23:59:16.739Z,11.78
